createdAt,value
2018-07-13T00:00:12.621Z,18.14
2018-07-13T00:02:42.169Z,18.08
2018-07-13T00:05:10.977Z,18.06
2018-07-13T00:07:39.642Z,18.12
2018-07-13T00:10:08.541Z,18.15
2018-07-13T00:12:37.049Z,18.11
2018-07-13T00:15:09.974Z,18.02
2018-07-13T00:17:38.508Z,17.96
2018-07-13T00:20:07.592Z,17.96
2018-07-13T00:22:36.048Z,17.96
2018-07-13T00:25:05.327Z,17.98
2018-07-13T00:27:33.989Z,17.98
2018-07-13T00:30:02.464Z,17.98
2018-07-13T00:32:31.577Z,17.97
2018-07-13T00:35:00.213Z,17.89
2018-07-13T00:37:28.733Z,17.83
2018-07-13T00:39:57.952Z,17.78
2018-07-13T00:42:26.773Z,17.71
2018-07-13T00:44:55.261Z,17.66
2018-07-13T00:47:23.997Z,17.62
2018-07-13T00:49:52.821Z,17.58
2018-07-13T00:52:21.295Z,17.57
2018-07-13T00:54:49.829Z,17.60
2018-07-13T00:57:18.574Z,17.60
2018-07-13T00:59:47.321Z,17.61
2018-07-13T01:02:15.921Z,17.62
2018-07-13T01:04:44.633Z,17.61
2018-07-13T01:07:13.343Z,17.58
2018-07-13T01:09:42.182Z,17.55
2018-07-13T01:12:10.637Z,17.55
2018-07-13T01:14:39.369Z,17.52
2018-07-13T01:17:08.233Z,17.56
2018-07-13T01:19:36.709Z,17.50
2018-07-13T01:22:05.604Z,17.41
2018-07-13T01:24:34.290Z,17.36
2018-07-13T01:27:02.737Z,17.31
2018-07-13T01:29:31.714Z,17.24
2018-07-13T01:32:00.485Z,17.20
2018-07-13T01:34:28.937Z,17.15
2018-07-13T01:36:57.666Z,17.13
2018-07-13T01:39:26.125Z,17.12
2018-07-13T01:41:54.578Z,17.13
2018-07-13T01:44:23.073Z,17.11
2018-07-13T01:46:51.541Z,17.10
2018-07-13T01:49:20.354Z,17.16
2018-07-13T01:51:48.837Z,17.19
2018-07-13T01:54:17.573Z,17.22
2018-07-13T01:56:46.145Z,17.25
2018-07-13T01:59:14.646Z,17.30
2018-07-13T02:01:43.109Z,17.32
2018-07-13T02:04:11.582Z,17.35
2018-07-13T02:06:40.278Z,17.36
2018-07-13T02:09:09.686Z,17.34
2018-07-13T02:11:38.154Z,17.37
2018-07-13T02:14:07.117Z,17.39
2018-07-13T02:16:35.849Z,17.40
2018-07-13T02:19:04.321Z,17.37
2018-07-13T02:21:32.819Z,17.29
2018-07-13T02:24:01.822Z,17.22
2018-07-13T02:26:30.342Z,17.13
2018-07-13T02:28:58.810Z,17.08
2018-07-13T02:31:28.563Z,17.05
2018-07-13T02:33:57.180Z,17.06
2018-07-13T02:36:25.673Z,17.06
2018-07-13T02:38:54.817Z,17.06
2018-07-13T02:41:23.675Z,17.04
2018-07-13T02:43:52.353Z,17.10
2018-07-13T02:46:20.909Z,17.15
2018-07-13T02:48:49.784Z,17.23
2018-07-13T02:51:18.249Z,17.27
2018-07-13T02:53:46.678Z,17.31
2018-07-13T02:56:15.465Z,17.37
2018-07-13T02:58:44.246Z,17.40
2018-07-13T03:01:13.009Z,17.40
2018-07-13T03:03:41.495Z,17.44
2018-07-13T03:06:10.082Z,17.45
2018-07-13T03:08:38.755Z,17.33
2018-07-13T03:11:07.578Z,17.52
2018-07-13T03:13:36.809Z,17.60
2018-07-13T03:16:06.038Z,17.63
2018-07-13T03:18:34.681Z,17.66
2018-07-13T03:21:03.189Z,17.70
2018-07-13T03:23:32.104Z,17.77
2018-07-13T03:26:00.588Z,17.87
2018-07-13T03:28:29.110Z,17.90
2018-07-13T03:30:58.650Z,17.91
2018-07-13T03:33:27.305Z,17.93
2018-07-13T03:35:55.803Z,17.96
2018-07-13T03:38:24.888Z,18.03
2018-07-13T03:40:54.386Z,18.11
2018-07-13T03:43:22.873Z,18.12
2018-07-13T03:45:51.861Z,18.18
2018-07-13T03:48:20.685Z,18.18
2018-07-13T03:50:49.145Z,18.18
2018-07-13T03:53:17.858Z,18.16
2018-07-13T03:55:46.708Z,18.19
2018-07-13T03:58:15.258Z,18.27
2018-07-13T04:00:44.004Z,18.42
2018-07-13T04:03:13.006Z,18.47
2018-07-13T04:05:41.775Z,18.48
2018-07-13T04:08:10.581Z,18.50
2018-07-13T04:10:46.037Z,18.52
2018-07-13T04:13:14.709Z,18.54
2018-07-13T04:15:43.796Z,18.62
2018-07-13T04:18:18.665Z,18.71
2018-07-13T04:20:47.614Z,18.75
2018-07-13T04:23:16.514Z,18.75
2018-07-13T04:25:45.063Z,18.78
2018-07-13T04:28:14.702Z,18.83
2018-07-13T04:30:43.932Z,18.89
2018-07-13T04:33:12.835Z,18.93
2018-07-13T04:35:41.341Z,18.95
2018-07-13T04:38:10.758Z,18.98
2018-07-13T04:40:39.262Z,19.00
2018-07-13T04:43:08.098Z,19.08
2018-07-13T04:45:37.442Z,19.11
2018-07-13T04:48:06.209Z,19.19
2018-07-13T04:50:35.012Z,19.25
2018-07-13T04:53:04.420Z,19.27
2018-07-13T04:55:33.942Z,19.34
2018-07-13T04:58:02.478Z,19.37
2018-07-13T05:00:31.466Z,19.42
2018-07-13T05:03:00.412Z,19.46
2018-07-13T05:05:28.938Z,19.51
2018-07-13T05:07:57.863Z,19.59
2018-07-13T05:10:26.629Z,19.61
2018-07-13T05:12:55.286Z,19.73
2018-07-13T05:15:24.133Z,19.80
2018-07-13T05:17:52.629Z,19.85
2018-07-13T05:20:21.420Z,19.91
2018-07-13T05:22:50.508Z,19.95
2018-07-13T05:25:19.077Z,19.97
2018-07-13T05:27:47.771Z,20.05
2018-07-13T05:30:16.917Z,20.12
2018-07-13T05:32:45.481Z,20.17
2018-07-13T05:35:14.014Z,20.26
2018-07-13T05:37:43.256Z,20.31
2018-07-13T05:40:11.833Z,20.33
2018-07-13T05:42:40.540Z,19.74
2018-07-13T05:45:09.495Z,20.35
2018-07-13T05:47:38.499Z,20.39
2018-07-13T05:50:07.145Z,20.45
2018-07-13T05:52:35.949Z,20.52
2018-07-13T05:55:04.898Z,20.59
2018-07-13T05:57:33.438Z,20.67
2018-07-13T06:00:02.309Z,20.77
2018-07-13T06:02:31.537Z,20.84
2018-07-13T06:05:00.552Z,20.90
2018-07-13T06:07:29.701Z,20.95
2018-07-13T06:09:58.309Z,21.03
2018-07-13T06:12:27.181Z,21.10
2018-07-13T06:14:56.076Z,21.16
2018-07-13T06:17:24.557Z,21.23
2018-07-13T06:19:53.441Z,21.35
2018-07-13T06:22:22.025Z,21.44
2018-07-13T06:24:50.537Z,21.50
2018-07-13T06:27:19.196Z,21.57
2018-07-13T06:29:47.806Z,21.64
2018-07-13T06:32:16.277Z,21.74
2018-07-13T06:34:45.050Z,21.81
2018-07-13T06:37:14.746Z,21.89
2018-07-13T06:39:44.065Z,22.00
2018-07-13T06:42:13.301Z,22.11
2018-07-13T06:44:42.097Z,22.19
2018-07-13T06:47:10.674Z,22.31
2018-07-13T06:49:39.257Z,22.46
2018-07-13T06:52:07.893Z,22.56
2018-07-13T06:54:36.659Z,22.61
2018-07-13T06:57:05.919Z,22.72
2018-07-13T06:59:34.773Z,22.81
2018-07-13T07:02:03.470Z,22.99
2018-07-13T07:04:34.699Z,23.09
2018-07-13T07:07:05.947Z,23.16
2018-07-13T07:09:34.665Z,23.22
2018-07-13T07:13:13.676Z,23.35
2018-07-13T07:15:42.465Z,23.48
2018-07-13T07:18:11.692Z,23.56
2018-07-13T07:20:40.449Z,23.70
2018-07-13T07:23:08.950Z,23.84
2018-07-13T07:25:37.442Z,23.98
2018-07-13T07:28:05.929Z,24.29
2018-07-13T07:30:34.467Z,24.56
2018-07-13T07:33:02.958Z,24.78
2018-07-13T07:35:31.469Z,25.00
2018-07-13T07:38:00.137Z,25.24
2018-07-13T07:40:28.671Z,25.55
2018-07-13T07:42:57.783Z,26.04
2018-07-13T07:45:26.597Z,26.76
2018-07-13T07:47:55.295Z,27.41
2018-07-13T07:50:24.006Z,28.07
2018-07-13T07:52:52.878Z,28.63
2018-07-13T07:55:21.590Z,29.06
2018-07-13T07:57:50.451Z,29.51
2018-07-13T08:00:18.945Z,29.86
2018-07-13T08:02:47.883Z,30.14
2018-07-13T08:05:17.201Z,30.41
2018-07-13T08:07:45.654Z,30.74
2018-07-13T08:10:14.389Z,31.07
2018-07-13T08:12:44.289Z,31.37
2018-07-13T08:15:12.751Z,31.53
2018-07-13T08:17:41.469Z,31.83
2018-07-13T08:20:10.442Z,32.24
2018-07-13T08:22:42.027Z,32.40
2018-07-13T08:25:13.717Z,32.60
2018-07-13T08:27:44.109Z,32.56
2018-07-13T08:30:17.665Z,32.59
2018-07-13T08:32:46.382Z,32.71
2018-07-13T08:35:14.934Z,32.90
2018-07-13T08:37:43.705Z,33.07
2018-07-13T08:40:12.782Z,33.12
2018-07-13T08:42:42.194Z,33.22
2018-07-13T08:45:11.509Z,33.28
2018-07-13T08:47:40.169Z,33.48
2018-07-13T08:50:09.085Z,33.55
2018-07-13T08:52:38.219Z,33.54
2018-07-13T08:55:08.486Z,33.72
2018-07-13T08:57:37.069Z,33.91
2018-07-13T09:00:06.115Z,33.91
2018-07-13T09:02:35.270Z,34.04
2018-07-13T09:05:03.802Z,34.10
2018-07-13T09:07:34.533Z,34.31
2018-07-13T09:10:03.367Z,33.07
2018-07-13T09:12:31.860Z,34.41
2018-07-13T09:15:00.647Z,34.57
2018-07-13T09:17:29.360Z,34.58
2018-07-13T09:19:58.365Z,34.56
2018-07-13T09:22:27.363Z,34.80
2018-07-13T09:24:55.889Z,34.96
2018-07-13T09:27:24.717Z,35.07
2018-07-13T09:29:53.601Z,35.15
2018-07-13T09:32:22.037Z,35.18
2018-07-13T09:34:50.526Z,35.10
2018-07-13T09:37:20.322Z,35.24
2018-07-13T09:39:49.090Z,35.36
2018-07-13T09:42:17.721Z,35.50
2018-07-13T09:44:46.921Z,35.75
2018-07-13T09:47:16.099Z,35.98
2018-07-13T09:49:44.565Z,36.10
2018-07-13T09:52:14.819Z,36.17
2018-07-13T09:54:43.616Z,36.37
2018-07-13T09:57:13.003Z,36.51
2018-07-13T09:59:42.419Z,36.71
2018-07-13T10:02:11.275Z,36.92
2018-07-13T10:04:39.837Z,36.91
2018-07-13T10:07:09.596Z,36.84
2018-07-13T10:09:38.286Z,36.91
2018-07-13T10:12:07.210Z,36.91
2018-07-13T10:14:36.159Z,37.19
2018-07-13T10:17:04.928Z,37.43
2018-07-13T10:19:33.930Z,37.49
2018-07-13T10:22:02.713Z,36.92
2018-07-13T10:24:32.375Z,36.50
2018-07-13T10:27:01.217Z,36.13
2018-07-13T10:29:33.146Z,36.27
2018-07-13T10:32:02.880Z,36.33
2018-07-13T10:34:32.203Z,36.35
2018-07-13T10:37:03.190Z,36.46
2018-07-13T10:39:32.534Z,36.69
2018-07-13T10:42:01.202Z,36.18
2018-07-13T10:44:30.036Z,35.66
2018-07-13T10:46:58.590Z,35.61
2018-07-13T10:49:27.325Z,35.91
2018-07-13T10:51:56.792Z,36.12
2018-07-13T10:54:25.424Z,35.85
2018-07-13T10:56:53.884Z,35.52
2018-07-13T10:59:22.945Z,35.86
2018-07-13T11:01:51.682Z,36.20
2018-07-13T11:04:20.349Z,36.75
2018-07-13T11:06:48.849Z,36.77
2018-07-13T11:09:17.710Z,36.32
2018-07-13T11:11:46.990Z,35.95
2018-07-13T11:14:15.730Z,36.14
2018-07-13T11:16:44.363Z,36.26
2018-07-13T11:19:13.094Z,35.86
2018-07-13T11:21:42.955Z,35.54
2018-07-13T11:24:11.763Z,35.02
2018-07-13T11:26:40.453Z,35.06
2018-07-13T11:29:09.231Z,35.51
2018-07-13T11:31:38.352Z,35.89
2018-07-13T11:34:07.045Z,36.14
2018-07-13T11:36:36.197Z,35.98
2018-07-13T11:39:05.583Z,35.76
2018-07-13T11:41:34.294Z,35.86
2018-07-13T11:44:02.986Z,35.96
2018-07-13T11:46:32.253Z,36.29
2018-07-13T11:49:01.269Z,36.30
2018-07-13T11:51:30.179Z,36.16
2018-07-13T11:53:58.831Z,36.43
2018-07-13T11:56:27.828Z,36.34
2018-07-13T11:58:56.536Z,36.48
2018-07-13T12:01:25.001Z,36.50
2018-07-13T12:03:53.702Z,36.63
2018-07-13T12:06:22.670Z,36.86
2018-07-13T12:08:51.149Z,37.03
2018-07-13T12:11:19.798Z,36.87
2018-07-13T12:13:49.049Z,36.65
2018-07-13T12:16:17.495Z,36.65
2018-07-13T12:18:46.242Z,36.74
2018-07-13T12:21:14.998Z,36.30
2018-07-13T12:23:43.463Z,35.37
2018-07-13T12:26:12.621Z,34.70
2018-07-13T12:28:41.685Z,34.79
2018-07-13T12:31:10.137Z,34.63
2018-07-13T12:33:38.822Z,34.87
2018-07-13T12:36:07.717Z,35.09
2018-07-13T12:38:36.159Z,35.32
2018-07-13T12:41:05.060Z,35.78
2018-07-13T12:43:34.689Z,36.12
2018-07-13T12:46:03.162Z,36.37
2018-07-13T12:48:31.752Z,36.37
2018-07-13T12:51:00.445Z,36.51
2018-07-13T12:53:29.247Z,36.48
2018-07-13T12:55:57.693Z,36.37
2018-07-13T12:58:27.362Z,36.61
2018-07-13T13:00:56.232Z,36.81
2018-07-13T13:03:24.750Z,37.15
2018-07-13T13:05:53.575Z,37.36
2018-07-13T13:08:22.298Z,37.54
2018-07-13T13:10:51.000Z,37.57
2018-07-13T13:13:19.869Z,37.78
2018-07-13T13:15:48.993Z,38.09
2018-07-13T13:18:17.690Z,38.09
2018-07-13T13:20:46.646Z,37.82
2018-07-13T13:23:15.087Z,37.89
2018-07-13T13:25:45.110Z,38.13
2018-07-13T13:28:14.434Z,38.41
2018-07-13T13:30:43.545Z,38.08
2018-07-13T13:33:11.971Z,38.15
2018-07-13T13:35:42.072Z,38.13
2018-07-13T13:38:10.522Z,38.28
2018-07-13T13:40:39.067Z,38.51
2018-07-13T13:43:08.091Z,38.61
2018-07-13T13:45:36.573Z,38.87
2018-07-13T13:48:05.093Z,38.81
2018-07-13T13:50:34.153Z,38.39
2018-07-13T13:53:02.596Z,38.39
2018-07-13T13:55:31.048Z,38.25
2018-07-13T13:57:59.888Z,38.59
2018-07-13T14:00:28.853Z,39.00
2018-07-13T14:02:57.307Z,39.25
2018-07-13T14:05:26.322Z,39.22
2018-07-13T14:07:55.032Z,38.78
2018-07-13T14:10:23.465Z,39.28
2018-07-13T14:12:51.966Z,39.33
2018-07-13T14:15:20.808Z,39.21
2018-07-13T14:17:49.506Z,39.17
2018-07-13T14:20:17.995Z,39.45
2018-07-13T14:22:46.846Z,39.66
2018-07-13T14:25:15.286Z,39.65
2018-07-13T14:27:44.117Z,39.78
2018-07-13T14:30:12.987Z,39.60
2018-07-13T14:32:42.753Z,39.16
2018-07-13T14:35:11.705Z,38.83
2018-07-13T14:37:40.131Z,38.35
2018-07-13T14:40:08.867Z,38.48
2018-07-13T14:42:37.769Z,38.61
2018-07-13T14:45:06.289Z,38.74
2018-07-13T14:47:34.957Z,38.55
2018-07-13T14:50:03.797Z,38.53
2018-07-13T14:52:32.232Z,38.66
2018-07-13T14:55:00.965Z,38.91
2018-07-13T14:57:29.946Z,39.11
2018-07-13T14:59:58.479Z,39.18
2018-07-13T15:02:27.461Z,39.37
2018-07-13T15:04:57.140Z,39.27
2018-07-13T15:07:25.585Z,38.83
2018-07-13T15:09:54.025Z,38.80
2018-07-13T15:12:22.939Z,38.85
2018-07-13T15:14:51.469Z,38.92
2018-07-13T15:17:19.957Z,38.96
2018-07-13T15:19:49.238Z,39.24
2018-07-13T15:22:17.673Z,39.52
2018-07-13T15:24:46.668Z,39.30
2018-07-13T15:27:15.724Z,39.11
2018-07-13T15:29:44.165Z,38.86
2018-07-13T15:32:12.660Z,38.83
2018-07-13T15:34:41.693Z,39.08
2018-07-13T15:37:10.160Z,38.87
2018-07-13T15:39:38.598Z,38.48
2018-07-13T15:42:07.919Z,38.17
2018-07-13T15:44:36.754Z,38.11
2018-07-13T15:47:05.658Z,38.35
2018-07-13T15:49:34.709Z,38.35
2018-07-13T15:52:03.540Z,38.43
2018-07-13T15:54:32.009Z,38.52
2018-07-13T15:57:01.086Z,38.33
2018-07-13T15:59:29.832Z,38.25
2018-07-13T16:01:58.549Z,38.38
2018-07-13T16:04:27.362Z,38.13
2018-07-13T16:06:55.826Z,38.15
2018-07-13T16:09:24.601Z,38.35
2018-07-13T16:11:53.504Z,38.27
2018-07-13T16:14:21.956Z,38.15
2018-07-13T16:16:50.973Z,38.26
2018-07-13T16:19:19.557Z,38.45
2018-07-13T16:21:48.212Z,38.54
2018-07-13T16:24:16.670Z,38.17
2018-07-13T16:26:45.594Z,37.85
2018-07-13T16:29:14.026Z,37.74
2018-07-13T16:31:42.731Z,37.72
2018-07-13T16:34:11.653Z,37.56
2018-07-13T16:36:40.622Z,37.20
2018-07-13T16:39:09.157Z,36.60
2018-07-13T16:41:38.337Z,35.92
2018-07-13T16:44:07.131Z,35.51
2018-07-13T16:46:35.610Z,35.56
2018-07-13T16:49:04.414Z,35.86
2018-07-13T16:51:32.870Z,35.94
2018-07-13T16:54:01.309Z,36.05
2018-07-13T16:56:30.228Z,36.05
2018-07-13T16:59:00.039Z,36.21
2018-07-13T17:01:29.175Z,36.12
2018-07-13T17:03:58.145Z,35.86
2018-07-13T17:06:26.959Z,35.61
2018-07-13T17:08:56.076Z,35.02
2018-07-13T17:11:24.809Z,34.28
2018-07-13T17:13:53.229Z,33.39
2018-07-13T17:16:21.865Z,32.79
2018-07-13T17:18:50.861Z,32.25
2018-07-13T17:21:19.318Z,31.82
2018-07-13T17:23:47.907Z,31.50
2018-07-13T17:26:16.968Z,31.09
2018-07-13T17:28:45.382Z,30.60
2018-07-13T17:31:13.857Z,30.31
2018-07-13T17:33:43.818Z,30.11
2018-07-13T17:36:12.599Z,29.89
2018-07-13T17:38:41.032Z,29.66
2018-07-13T17:41:09.958Z,29.35
2018-07-13T17:43:38.487Z,29.11
2018-07-13T17:46:07.158Z,28.88
2018-07-13T17:48:36.042Z,28.71
2018-07-13T17:51:04.488Z,28.60
2018-07-13T17:53:32.977Z,28.41
2018-07-13T17:56:01.973Z,28.28
2018-07-13T17:58:30.413Z,28.04
2018-07-13T18:00:58.994Z,27.85
2018-07-13T18:03:28.197Z,27.75
2018-07-13T18:05:57.121Z,27.68
2018-07-13T18:08:25.926Z,27.58
2018-07-13T18:10:54.695Z,27.53
2018-07-13T18:13:23.529Z,27.42
2018-07-13T18:15:51.988Z,27.37
2018-07-13T18:18:21.058Z,27.34
2018-07-13T18:20:49.829Z,27.26
2018-07-13T18:23:18.852Z,27.19
2018-07-13T18:25:47.713Z,27.14
2018-07-13T18:28:16.333Z,27.13
2018-07-13T18:30:45.205Z,27.09
2018-07-13T18:33:14.095Z,26.99
2018-07-13T18:35:43.438Z,26.82
2018-07-13T18:38:12.490Z,26.77
2018-07-13T18:40:41.294Z,26.74
2018-07-13T18:43:10.086Z,26.66
2018-07-13T18:45:38.857Z,26.64
2018-07-13T18:48:07.753Z,26.58
2018-07-13T18:50:36.206Z,26.50
2018-07-13T18:53:05.388Z,26.42
2018-07-13T18:55:34.477Z,26.31
2018-07-13T18:58:02.917Z,26.17
2018-07-13T19:00:31.601Z,26.06
2018-07-13T19:03:00.477Z,25.97
2018-07-13T19:05:28.913Z,25.87
2018-07-13T19:07:57.949Z,25.77
2018-07-13T19:10:27.057Z,25.68
2018-07-13T19:12:55.501Z,25.61
2018-07-13T19:15:23.961Z,25.53
2018-07-13T19:17:52.742Z,25.49
2018-07-13T19:20:21.205Z,25.44
2018-07-13T19:22:49.716Z,25.37
2018-07-13T19:25:21.297Z,25.30
2018-07-13T19:27:50.172Z,25.24
2018-07-13T19:30:18.917Z,25.17
2018-07-13T19:32:47.380Z,25.09
2018-07-13T19:35:15.950Z,25.00
2018-07-13T19:37:44.653Z,24.89
2018-07-13T19:40:13.317Z,24.84
2018-07-13T19:42:41.851Z,24.81
2018-07-13T19:45:10.716Z,24.74
2018-07-13T19:47:39.337Z,24.67
2018-07-13T19:50:07.813Z,24.58
2018-07-13T19:52:36.887Z,24.52
2018-07-13T19:55:05.593Z,24.43
2018-07-13T19:57:34.057Z,24.35
2018-07-13T20:00:02.840Z,24.29
2018-07-13T20:02:31.653Z,24.23
2018-07-13T20:05:00.131Z,24.15
2018-07-13T20:07:28.874Z,24.07
2018-07-13T20:09:57.693Z,24.03
2018-07-13T20:12:26.341Z,23.96
2018-07-13T20:14:55.957Z,23.93
2018-07-13T20:17:24.991Z,23.92
2018-07-13T20:19:53.542Z,23.92
2018-07-13T20:22:22.006Z,23.90
2018-07-13T20:24:50.841Z,23.91
2018-07-13T20:27:19.313Z,23.74
2018-07-13T20:29:48.069Z,23.84
2018-07-13T20:32:17.212Z,23.80
2018-07-13T20:34:45.917Z,23.76
2018-07-13T20:37:14.642Z,23.71
2018-07-13T20:39:43.812Z,23.59
2018-07-13T20:42:12.354Z,23.50
2018-07-13T20:44:41.523Z,23.43
2018-07-13T20:47:10.004Z,23.38
2018-07-13T20:49:38.642Z,23.34
2018-07-13T20:52:07.363Z,23.31
2018-07-13T20:54:36.184Z,23.28
2018-07-13T20:57:04.685Z,23.27
2018-07-13T20:59:33.389Z,23.22
2018-07-13T21:02:01.937Z,23.20
2018-07-13T21:04:30.394Z,23.15
2018-07-13T21:06:59.161Z,23.12
2018-07-13T21:09:27.817Z,23.11
2018-07-13T21:11:56.307Z,23.08
2018-07-13T21:14:25.071Z,23.08
2018-07-13T21:16:53.518Z,23.06
2018-07-13T21:19:21.989Z,22.99
2018-07-13T21:21:50.976Z,22.95
2018-07-13T21:24:20.205Z,22.91
2018-07-13T21:26:49.237Z,22.88
2018-07-13T21:29:17.721Z,22.84
2018-07-13T21:31:46.500Z,22.78
2018-07-13T21:34:15.547Z,22.75
2018-07-13T21:36:44.057Z,22.71
2018-07-13T21:39:13.545Z,22.66
2018-07-13T21:41:42.575Z,22.62
2018-07-13T21:44:11.551Z,22.59
2018-07-13T21:46:40.425Z,22.55
2018-07-13T21:49:08.913Z,22.52
2018-07-13T21:51:37.679Z,22.44
2018-07-13T21:54:06.476Z,22.44
2018-07-13T21:56:34.946Z,22.45
2018-07-13T21:59:03.825Z,22.45
2018-07-13T22:01:32.531Z,22.44
2018-07-13T22:04:01.034Z,22.40
2018-07-13T22:06:30.281Z,22.37
2018-07-13T22:08:59.037Z,22.31
2018-07-13T22:11:27.519Z,22.25
2018-07-13T22:13:56.473Z,22.21
2018-07-13T22:16:25.830Z,22.18
2018-07-13T22:18:54.351Z,22.17
2018-07-13T22:21:22.877Z,22.15
2018-07-13T22:23:51.964Z,22.13
2018-07-13T22:26:20.440Z,21.95
2018-07-13T22:28:48.984Z,22.09
2018-07-13T22:31:17.681Z,22.05
2018-07-13T22:33:46.834Z,22.02
2018-07-13T22:36:16.134Z,21.97
2018-07-13T22:38:44.961Z,21.89
2018-07-13T22:41:14.353Z,21.74
2018-07-13T22:43:42.832Z,21.54
2018-07-13T22:46:11.409Z,21.40
2018-07-13T22:48:40.163Z,21.35
2018-07-13T22:51:08.715Z,21.31
2018-07-13T22:53:37.213Z,21.27
2018-07-13T22:56:06.165Z,21.20
2018-07-13T22:58:34.637Z,21.11
2018-07-13T23:01:03.739Z,20.98
2018-07-13T23:03:32.859Z,20.88
2018-07-13T23:06:02.641Z,20.79
2018-07-13T23:08:31.337Z,20.74
2018-07-13T23:11:00.297Z,20.72
2018-07-13T23:13:29.210Z,20.77
2018-07-13T23:15:58.769Z,20.78
2018-07-13T23:18:27.583Z,20.85
2018-07-13T23:20:56.456Z,20.89
2018-07-13T23:23:25.070Z,20.91
2018-07-13T23:25:53.577Z,20.85
2018-07-13T23:28:22.545Z,20.70
2018-07-13T23:30:51.199Z,20.56
2018-07-13T23:33:19.826Z,20.51
2018-07-13T23:35:49.211Z,20.49
2018-07-13T23:38:17.856Z,20.43
2018-07-13T23:40:46.336Z,20.37
2018-07-13T23:43:14.857Z,20.33
2018-07-13T23:45:44.069Z,20.30
2018-07-13T23:48:12.593Z,20.35
2018-07-13T23:50:41.085Z,20.41
2018-07-13T23:53:09.637Z,20.41
2018-07-13T23:55:38.368Z,20.32
2018-07-13T23:58:07.106Z,20.26
